Address 0xca19630fb3491bbe6891e613ef2e62929816e202 6

Overview

Balance:
0.507587622043681062 GLMR

GLMR Value:
$0.25 (@ $0.48/GLMR)

Token:
Txn Hash Method
Block
From
To
Value [Txn Fee]
0x6e1fd1357d1b0b865cc6402dfabd284b2d08cd97069b88593776e8694fabc583Transfer16257952022-08-10 22:43:36170 days 1 hr ago0xca19630fb3491bbe6891e613ef2e62929816e202OUT0x7b744d7cfab0cbd13370e0aaeafac5637994bbb5103.5 GLMR0.0021315
0x1e6b4a1146e877d966be7eb3773ba85f92cbedc0a85f70efbd1df651ea8f3b11Swap Exact Token...16257802022-08-10 22:40:18170 days 1 hr ago0xca19630fb3491bbe6891e613ef2e62929816e202OUT StellaSwap: Router v2.10 GLMR0.011442907
0x6b1c6fef46782d9563883841aca92ac008b6f881bcaf2cb93b844cae27f906d9Any Swap Out16246592022-08-10 18:49:30170 days 5 hrs ago0xca19630fb3491bbe6891e613ef2e62929816e202OUT 0xabd380327fe66724ffda91a87c772fb8d00be4880 GLMR0.00384076
0x2291e2d5a02d5860c024aba85bad10c6b4f0d7e358a1871729b572493800a6220xc9b72ce516245962022-08-10 18:36:30170 days 5 hrs ago0xca19630fb3491bbe6891e613ef2e62929816e202OUT 0x0b7161d5dd0c85e8f072b7de076012cc9355f82c0 GLMR0.0157192
0xb6cb409f0771c3a01537a2d0ffb622dcf798dfa346841435e876296828bd72bfApprove16245922022-08-10 18:35:42170 days 5 hrs ago0xca19630fb3491bbe6891e613ef2e62929816e202OUT 0xad7221a7e900fd070bb8f139c80b9ce535151eb40 GLMR0.0046242
0x57644c06a43765d8e5dc9af24fd73bb5afe9e19a0732755dfa6045050cf8697bTransfer11078042022-05-26 15:33:30246 days 8 hrs ago0xca19630fb3491bbe6891e613ef2e62929816e202OUT0x7b744d7cfab0cbd13370e0aaeafac5637994bbb5314 GLMR0.0021315
0x3122d6cecdac74bed77dd2f90bd7d207c101ce981c82b3dcb031e2643c8433baSwap Exact Token...11077892022-05-26 15:30:24246 days 8 hrs ago0xca19630fb3491bbe6891e613ef2e62929816e202OUT StellaSwap: Router v2.10 GLMR0.011442907
0xa5f009f538f0b1556d62cc2d85dad75f847309c6a1e33adba9568076b4dd74a0Approve11077852022-05-26 15:29:30246 days 8 hrs ago0xca19630fb3491bbe6891e613ef2e62929816e202OUT Multichain: USDC Token0 GLMR0.0047310165
0x8bcbfb7244e89d7657fec30a0c20c929b784f4d01eaf0bf73dbc32625dc46ea7Any Swap Out11077312022-05-26 15:17:30246 days 8 hrs ago0xca19630fb3491bbe6891e613ef2e62929816e202OUT 0xabd380327fe66724ffda91a87c772fb8d00be4880 GLMR0.003073623
0x1513c5805da675300b1aca94c9120e4aefe3da847a154f7be799368f06f29530Withdraw10938132022-05-24 14:35:48248 days 9 hrs ago0xca19630fb3491bbe6891e613ef2e62929816e202OUT 0x4c4bf319237d98a30a929a96112effa8da3510eb0 GLMR0.013934732
0x15e4befe8bd269a720cd3ab5d6c995ca9ed2df4977d06cb60f52ae2e4ffca832Approve10938052022-05-24 14:34:00248 days 9 hrs ago0xca19630fb3491bbe6891e613ef2e62929816e202OUT 0xad7221a7e900fd070bb8f139c80b9ce535151eb40 GLMR0.004724013
0xc194f8c7d32952a2264cec753eb154b4bb76bee8c8da31aa1365fc6925f8cbafWithdraw10937972022-05-24 14:32:24248 days 9 hrs ago0xca19630fb3491bbe6891e613ef2e62929816e202OUT Thorus: Thorus Master0 GLMR0.011147542
0x2ad356eec2bc2383481bf6594f43ec42f95d54c1255ee234325ef3b20406eeb3Deposit5074692022-03-01 1:55:30332 days 21 hrs ago0xca19630fb3491bbe6891e613ef2e62929816e202OUT 0x4c4bf319237d98a30a929a96112effa8da3510eb0 GLMR0.0124805
0x764211cd1b786dcc8a910e3687a58ccb340b9f510c643366f866a433ca3af6dbClaim5074652022-03-01 1:54:36332 days 21 hrs ago0xca19630fb3491bbe6891e613ef2e62929816e202OUT Thorus: Thorus Master0 GLMR0.0099997
0x7923ec72ee18742c01466a1e99026d29660e14b32011a2046a86d2b3406e97fdDeposit4935852022-02-27 2:05:06334 days 21 hrs ago0xca19630fb3491bbe6891e613ef2e62929816e202OUT 0x4c4bf319237d98a30a929a96112effa8da3510eb0 GLMR0.0124805
0x21c5eec6da528fee5b617a09edec91e90dac5958a9ea4bf3a242f2e4d258dad4Claim4935812022-02-27 2:04:18334 days 21 hrs ago0xca19630fb3491bbe6891e613ef2e62929816e202OUT Thorus: Thorus Master0 GLMR0.0080097
0x4d23f4fe40302fbb2171b510bca3be97b598cc68cc8a69a3915c4a897624632fClaim4629952022-02-22 15:36:18339 days 8 hrs ago0xca19630fb3491bbe6891e613ef2e62929816e202OUT Thorus: Thorus Master0 GLMR0.0099997
0x275ae02e98232adec3458f4e2667d956d18f54f66aa2e419fb628e8e6a5a2638Transfer4629382022-02-22 15:24:00339 days 8 hrs agoBinance 1 IN 0xca19630fb3491bbe6891e613ef2e62929816e2023.6303 GLMR0.0042
0xb70889a229e165bc5efc018c216ec53d046a76b64f6983f88bb1918f03170cbbDeposit4627442022-02-22 14:42:30339 days 9 hrs ago0xca19630fb3491bbe6891e613ef2e62929816e202OUT 0x4c4bf319237d98a30a929a96112effa8da3510eb0 GLMR0.0124805
0x00c37669dad5d179d155df852237a800a6e30860ca8f3afdf28c9008aac0c494Transfer4625992022-02-22 14:12:24339 days 9 hrs ago0xca19630fb3491bbe6891e613ef2e62929816e202OUT0x80cbecb486ba35465cbbda9f36d65791055efeed497.04 GLMR0.0021
0x00db147aa970cd18e33808221a3e83dc9aa2d300234539bb44c1f968882e8a90Swap Exact Token...4625882022-02-22 14:10:12339 days 9 hrs ago0xca19630fb3491bbe6891e613ef2e62929816e202OUT Thorus: Router0 GLMR0.0033002
0x261b32310d3be2b9ba80b29a2085f450b393548a9f233c5ce86d0f84825c8990Swap Exact Token...4625822022-02-22 14:08:54339 days 9 hrs ago0xca19630fb3491bbe6891e613ef2e62929816e202OUT Thorus: Router0 GLMR0.0163586
0x2c81922438fc973e212e8177995fbaf7aaf46dac759839a51f7bd0923469c24aRemove Liquidity4625772022-02-22 14:07:54339 days 9 hrs ago0xca19630fb3491bbe6891e613ef2e62929816e202OUT Thorus: Router0 GLMR0.013796
0x4d38df787031be0a86e362a29d55553a5e9ad6f8e75321802e707c81b5e19df7Approve4625742022-02-22 14:07:18339 days 9 hrs ago0xca19630fb3491bbe6891e613ef2e62929816e202OUT 0x4cb9db950c75d48317fa0bc88c98d9e6cb40c8df0 GLMR0.0046542
0xc277997085257dace1e3a6f0e74219b7b3bfd6bbb360b68d8e6ecc4b19739247Withdraw4625662022-02-22 14:05:36339 days 9 hrs ago0xca19630fb3491bbe6891e613ef2e62929816e202OUT Thorus: Thorus Master0 GLMR0.0093908
[ Download CSV Export 
Latest 5 internal transactions
Parent Txn Hash Block From To Value
0x1e6b4a1146e877d966be7eb3773ba85f92cbedc0a85f70efbd1df651ea8f3b1116257802022-08-10 22:40:18170 days 1 hr ago StellaSwap: Router v2.10xca19630fb3491bbe6891e613ef2e62929816e202102.338267006783335123 GLMR
0x3122d6cecdac74bed77dd2f90bd7d207c101ce981c82b3dcb031e2643c8433ba11077892022-05-26 15:30:24246 days 8 hrs ago StellaSwap: Router v2.10xca19630fb3491bbe6891e613ef2e62929816e202312.171996905235920962 GLMR
0x261b32310d3be2b9ba80b29a2085f450b393548a9f233c5ce86d0f84825c89904625822022-02-22 14:08:54339 days 9 hrs ago Thorus: Router0xca19630fb3491bbe6891e613ef2e62929816e202494.810851274957001056 GLMR
0x28b152a37c8ba0109e5a1b74d4133865bc5b6171b055e0814eebc45b431ffd2c2927702022-01-28 20:29:48364 days 3 hrs ago Thorus: Router0xca19630fb3491bbe6891e613ef2e62929816e20287.655035220175243353 GLMR
0x3ec3d50cad05ef9713f5206a95c6a79d4cb113489b6ac80efc88bcf85b52144c2927652022-01-28 20:28:48364 days 3 hrs ago Thorus: Router0xca19630fb3491bbe6891e613ef2e62929816e20289.387747415392180568 GLMR
[ Download CSV Export 
Loading

Contract Name:
0

Compiler Version
0

Optimization Enabled:
0

Other Settings:
-NA-
Block Transaction Gas Used Reward
Age Block Fee Address BC Fee Address Voting Power Jailed Incoming
Block Uncle Number Difficulty Gas Used Reward
Loading
Make sure to use the "Vote Down" button for any spammy posts, and the "Vote Up" for interesting conversations.